Home   Weather   San Clemente Island   Past weeks
Flag for USA

Past Weather in San Clemente Island, California, USA — July 2019

Currently: 63 °F. Clear. (Weather station: Los Alamitos U. S. Army Airfield, USA). See more current weather

July 2019 Weather in San Clemente Island — Graph

°F

High & Low Weather Summary for July 2019

 TemperatureHumidityPressure
High97 °F (Jul 23, 1:58 pm)100% (Jul 2, 4:08 am)30.07 "Hg (Jul 2, 4:08 am)
Low60 °F (Jul 1, 3:58 am)17% (Jul 25, 1:58 pm)29.78 "Hg (Jul 12, 5:58 pm)
Average70 °F73%29.94 "Hg
* Reported Jul 1 12:58 am — Jul 31 11:58 pm, San Clemente Island. Weather by CustomWeather, © 2021

Note: Actual official high and low records may vary slightly from our data, if they occured in-between our weather recording intervals... More about our weather records

San Clemente Island Weather History for July 1, 2019

Scroll right to see more
 ConditionsComfort  
Time TempWeatherWind HumidityBarometerVisibility
12:58 am
Mon, Jul 1
64 °FClear.No wind77%29.97 "Hg10 mi
1:58 am63 °FClear.3 mph80%29.96 "Hg10 mi
2:58 am61 °FClear.5 mph93%29.96 "Hg10 mi
3:58 am60 °FClear.No wind97%29.96 "Hg10 mi
4:58 am61 °FClear.No wind97%29.96 "Hg10 mi
5:58 am60 °FSunny.No wind98%29.97 "Hg10 mi
6:58 am63 °FSunny.No wind94%29.98 "Hg10 mi
7:58 am68 °FSunny.No wind78%29.98 "Hg10 mi
8:58 am71 °FSunny.No wind66%29.98 "Hg10 mi
9:58 am76 °FSunny.No wind55%29.98 "Hg10 mi
10:58 am77 °FSunny.12 mph58%29.97 "Hg10 mi
11:58 am77 °FSunny.10 mph55%29.97 "Hg10 mi
12:58 pm77 °FSunny.12 mph56%29.96 "Hg10 mi
1:58 pm77 °FSunny.13 mph56%29.95 "Hg10 mi
2:58 pm77 °FSunny.14 mph57%29.94 "Hg10 mi
3:58 pm80 °FSunny.12 mph46%29.92 "Hg10 mi
4:58 pm81 °FSunny.9 mph40%29.91 "Hg10 mi
5:58 pm80 °FSunny.9 mph51%29.89 "Hg10 mi
6:58 pm76 °FSunny.8 mph60%29.90 "Hg10 mi
7:58 pm74 °FSunny.5 mph56%29.90 "Hg10 mi
8:58 pm68 °FClear.5 mph77%29.91 "Hg10 mi
9:58 pm66 °FClear.3 mph84%29.93 "Hg10 mi
10:58 pm65 °FClear.3 mph87%29.93 "Hg10 mi
11:58 pm64 °FClear.5 mph90%29.93 "Hg10 mi
Weather by CustomWeather, © 2021

See weather overview